createdAt,value
2022-09-18T00:03:51.859Z,253.54774
2022-09-18T00:08:53.501Z,233.20188
2022-09-18T00:13:55.141Z,221.47748
2022-09-18T00:18:56.739Z,214.17544
2022-09-18T00:23:58.397Z,234.56604
2022-09-18T00:29:00.019Z,233.20188
2022-09-18T00:34:01.659Z,225.27854
2022-09-18T00:39:03.476Z,227.87097
2022-09-18T00:44:05.159Z,234.56604
2022-09-18T00:49:06.752Z,229.18519
2022-09-18T00:54:08.397Z,216.56637
2022-09-18T00:59:10.085Z,214.17544
2022-09-18T01:04:11.683Z,214.17544
2022-09-18T01:09:25.157Z,211.82609
2022-09-18T01:14:29.940Z,198.54545
2022-09-18T01:19:31.586Z,196.45902
2022-09-18T01:24:33.220Z,222.73303
2022-09-18T01:29:34.867Z,207.24786
2022-09-18T01:34:36.508Z,196.45902
2022-09-18T01:39:38.179Z,200.66667
2022-09-18T01:44:39.895Z,202.82353
2022-09-18T01:49:41.510Z,203.91561
2022-09-18T01:54:43.138Z,201.74059
2022-09-18T01:59:45.001Z,208.37768
2022-09-18T02:04:46.606Z,203.91561
2022-09-18T02:09:48.283Z,214.17544
2022-09-18T02:14:49.914Z,206.12766
2022-09-18T02:19:51.509Z,214.17544
2022-09-18T02:24:53.118Z,216.56637
2022-09-18T02:29:54.802Z,206.12766
2022-09-18T02:34:56.408Z,195.42857
2022-09-18T02:39:58.299Z,193.39271
2022-09-18T02:45:00.030Z,197.49794
2022-09-18T02:50:02.280Z,203.91561
2022-09-18T02:55:04.051Z,198.54545
2022-09-18T03:00:05.675Z,199.60166
2022-09-18T03:05:07.407Z,196.45902
2022-09-18T03:10:09.029Z,198.54545
2022-09-18T03:15:10.683Z,191.38956
2022-09-18T03:20:12.399Z,203.91561
2022-09-18T03:25:14.007Z,209.51724
2022-09-18T03:30:15.651Z,209.51724
2022-09-18T03:35:17.391Z,201.74059
2022-09-18T03:40:19.113Z,205.01695
2022-09-18T03:45:20.834Z,212.99563
2022-09-18T03:50:22.553Z,230.51163
2022-09-18T03:55:24.185Z,226.56881
2022-09-18T04:00:25.774Z,216.56637
2022-09-18T04:05:27.413Z,217.77778
2022-09-18T04:10:29.012Z,212.99563
2022-09-18T04:15:30.797Z,216.56637
2022-09-18T04:20:32.489Z,221.47748
2022-09-18T04:25:34.136Z,235.94313
2022-09-18T04:30:35.884Z,220.23318
2022-09-18T04:35:37.553Z,216.56637
2022-09-18T04:40:39.229Z,221.47748
2022-09-18T04:45:40.870Z,220.23318
2022-09-18T04:50:42.555Z,214.17544
2022-09-18T04:55:44.173Z,216.56637
2022-09-18T05:00:45.942Z,215.36564
2022-09-18T05:05:47.580Z,211.82609
2022-09-18T05:10:49.218Z,219
2022-09-18T05:15:51.079Z,217.77778
2022-09-18T05:20:52.707Z,215.36564
2022-09-18T05:25:54.328Z,224
2022-09-18T05:30:56.086Z,205.01695
2022-09-18T05:35:57.735Z,203.91561
2022-09-18T05:40:59.352Z,202.82353
2022-09-18T05:46:01.001Z,207.24786
2022-09-18T05:51:02.644Z,216.56637
2022-09-18T05:56:04.302Z,217.77778
2022-09-18T06:01:05.950Z,220.23318
2022-09-18T06:06:07.645Z,211.82609
2022-09-18T06:11:09.457Z,214.17544
2022-09-18T06:16:11.155Z,211.82609
2022-09-18T06:21:12.804Z,216.56637
2022-09-18T06:26:15.287Z,215.36564
2022-09-18T06:31:17.109Z,212.99563
2022-09-18T06:36:18.776Z,208.37768
2022-09-18T06:41:20.372Z,221.47748
2022-09-18T06:46:22.126Z,224
2022-09-18T06:51:23.803Z,224
2022-09-18T06:56:25.412Z,227.87097
2022-09-18T07:01:27.109Z,235.94313
2022-09-18T07:06:28.819Z,224
2022-09-18T07:11:30.696Z,221.47748
2022-09-18T07:16:32.461Z,221.47748
2022-09-18T07:21:34.143Z,214.17544
2022-09-18T07:26:35.881Z,237.33333
2022-09-18T07:31:37.775Z,221.47748
2022-09-18T07:36:39.461Z,217.77778
2022-09-18T07:41:41.085Z,220.23318
2022-09-18T07:46:42.853Z,222.73303
2022-09-18T07:51:44.732Z,224
2022-09-18T07:56:47.062Z,225.27854
2022-09-18T08:01:49.255Z,231.85047
2022-09-18T08:06:51.016Z,230.51163
2022-09-18T08:11:52.623Z,247.44828
2022-09-18T08:16:54.251Z,250.46766
2022-09-18T08:21:55.868Z,247.44828
2022-09-18T08:26:57.731Z,245.96078
2022-09-18T08:31:59.410Z,255.11111
2022-09-18T08:37:00.996Z,256.69036
2022-09-18T08:42:02.645Z,263.17098
2022-09-18T08:47:04.262Z,258.28571
2022-09-18T08:52:05.972Z,261.52577
2022-09-18T08:57:09.314Z,264.83333
2022-09-18T09:02:14.190Z,268.21053
2022-09-18T09:07:15.808Z,268.21053
2022-09-18T09:12:17.389Z,263.17098
2022-09-18T09:17:18.936Z,266.51309
2022-09-18T09:22:20.543Z,263.17098
2022-09-18T09:27:22.226Z,259.89744
2022-09-18T09:32:23.864Z,252
2022-09-18T09:37:25.456Z,255.11111
2022-09-18T09:42:27.175Z,255.11111
2022-09-18T09:47:28.764Z,253.54774
2022-09-18T09:52:30.375Z,256.69036
2022-09-18T09:57:32.060Z,256.69036
2022-09-18T10:02:33.672Z,256.69036
2022-09-18T10:07:35.278Z,258.28571
2022-09-18T10:12:37.024Z,258.28571
2022-09-18T10:17:38.635Z,259.89744
2022-09-18T10:22:40.237Z,264.83333
2022-09-18T10:27:41.983Z,261.52577
2022-09-18T10:32:43.642Z,263.17098
2022-09-18T10:37:45.239Z,266.51309
2022-09-18T10:42:46.911Z,259.89744
2022-09-18T10:47:48.535Z,266.51309
2022-09-18T10:52:50.126Z,268.21053
2022-09-18T10:57:51.713Z,266.51309
2022-09-18T11:02:53.356Z,263.17098
2022-09-18T11:07:55.025Z,264.83333
2022-09-18T11:12:56.721Z,264.83333
2022-09-18T11:17:58.373Z,268.21053
2022-09-18T11:23:00.018Z,275.1828
2022-09-18T11:28:01.647Z,266.51309
2022-09-18T11:33:03.263Z,271.65957
2022-09-18T11:38:04.955Z,263.17098
2022-09-18T11:43:06.643Z,263.17098
2022-09-18T11:48:08.302Z,271.65957
2022-09-18T11:53:09.945Z,268.21053
2022-09-18T11:58:11.589Z,266.51309
2022-09-18T12:03:13.450Z,271.65957
2022-09-18T12:08:13.926Z,271.65957
2022-09-18T12:13:15.644Z,271.65957
2022-09-18T12:18:17.289Z,273.41176
2022-09-18T12:23:18.882Z,268.21053
2022-09-18T12:28:20.497Z,271.65957
2022-09-18T12:33:22.140Z,271.65957
2022-09-18T12:38:23.750Z,269.92593
2022-09-18T12:43:26.018Z,273.41176
2022-09-18T12:48:27.676Z,264.83333
2022-09-18T12:53:29.237Z,273.41176
2022-09-18T12:58:30.817Z,273.41176
2022-09-18T13:03:32.462Z,273.41176
2022-09-18T13:08:34.076Z,275.1828
2022-09-18T13:13:35.846Z,268.21053
2022-09-18T13:18:38.186Z,266.51309
2022-09-18T13:23:39.819Z,266.51309
2022-09-18T13:28:41.461Z,271.65957
2022-09-18T13:33:43.150Z,263.17098
2022-09-18T13:38:44.795Z,266.51309
2022-09-18T13:43:46.496Z,263.17098
2022-09-18T13:48:48.219Z,266.51309
2022-09-18T13:53:49.877Z,263.17098
2022-09-18T13:58:51.459Z,273.41176
2022-09-18T14:03:53.604Z,271.65957
2022-09-18T14:08:55.224Z,268.21053
2022-09-18T14:13:56.816Z,266.51309
2022-09-18T14:18:58.501Z,273.41176
2022-09-18T14:24:00.215Z,269.92593
2022-09-18T14:29:01.850Z,266.51309
2022-09-18T14:34:03.475Z,275.1828
2022-09-18T14:39:05.200Z,261.52577
2022-09-18T14:44:06.884Z,271.65957
2022-09-18T14:49:08.529Z,268.21053
2022-09-18T14:54:10.140Z,263.17098
2022-09-18T14:59:11.790Z,269.92593
2022-09-18T15:04:13.419Z,268.21053
2022-09-18T15:09:15.097Z,271.65957
2022-09-18T15:14:16.676Z,261.52577
2022-09-18T15:19:18.253Z,273.41176
2022-09-18T15:24:19.908Z,273.41176
2022-09-18T15:29:21.537Z,273.41176
2022-09-18T15:34:23.290Z,275.1828
2022-09-18T15:39:24.897Z,276.97297
2022-09-18T15:44:26.505Z,275.1828
2022-09-18T15:49:28.108Z,269.92593
2022-09-18T15:54:29.749Z,271.65957
2022-09-18T15:59:31.395Z,269.92593
2022-09-18T16:04:33.035Z,271.65957
2022-09-18T16:09:34.636Z,275.1828
2022-09-18T16:14:36.258Z,273.41176
2022-09-18T16:19:37.913Z,286.22222
2022-09-18T16:24:39.545Z,282.46154
2022-09-18T16:29:41.418Z,276.97297
2022-09-18T16:34:43.139Z,278.78261
2022-09-18T16:39:44.773Z,268.21053
2022-09-18T16:44:46.376Z,276.97297
2022-09-18T16:49:48.128Z,275.1828
2022-09-18T16:54:49.782Z,276.97297
2022-09-18T16:59:51.418Z,286.22222
2022-09-18T17:04:53.030Z,286.22222
2022-09-18T17:09:54.626Z,286.22222
2022-09-18T17:14:56.317Z,282.46154
2022-09-18T17:19:57.919Z,278.78261
2022-09-18T17:24:59.618Z,280.61202
2022-09-18T17:30:01.316Z,284.33149
2022-09-18T17:35:02.931Z,275.1828
2022-09-18T17:40:04.618Z,276.97297
2022-09-18T17:45:06.313Z,280.61202
2022-09-18T17:50:07.955Z,275.1828
2022-09-18T17:55:09.640Z,276.97297
2022-09-18T18:00:11.243Z,271.65957
2022-09-18T18:05:12.840Z,269.92593
2022-09-18T18:10:14.509Z,261.52577
2022-09-18T18:15:16.117Z,245.96078
2022-09-18T18:20:17.717Z,252
2022-09-18T18:25:19.370Z,266.51309
2022-09-18T18:30:21.083Z,273.41176
2022-09-18T18:35:23.508Z,280.61202
2022-09-18T18:40:25.200Z,280.61202
2022-09-18T18:45:26.839Z,286.22222
2022-09-18T18:50:28.507Z,278.78261
2022-09-18T18:55:30.154Z,269.92593
2022-09-18T19:00:31.919Z,256.69036
2022-09-18T19:05:33.717Z,255.11111
2022-09-18T19:10:35.337Z,264.83333
2022-09-18T19:15:38.536Z,264.83333
2022-09-18T19:20:40.279Z,271.65957
2022-09-18T19:25:41.896Z,261.52577
2022-09-18T19:30:43.530Z,269.92593
2022-09-18T19:35:45.143Z,276.97297
2022-09-18T19:40:46.872Z,266.51309
2022-09-18T19:45:48.768Z,259.89744
2022-09-18T19:50:50.401Z,252
2022-09-18T19:55:52.028Z,258.28571
2022-09-18T20:00:53.673Z,245.96078
2022-09-18T20:05:55.361Z,261.52577
2022-09-18T20:10:56.943Z,261.52577
2022-09-18T20:15:58.631Z,268.21053
2022-09-18T20:21:00.319Z,275.1828
2022-09-18T20:26:01.971Z,276.97297
2022-09-18T20:31:03.628Z,292.0226
2022-09-18T20:36:05.326Z,286.22222
2022-09-18T20:41:07.179Z,278.78261
2022-09-18T20:46:09.021Z,282.46154
2022-09-18T20:51:10.688Z,294
2022-09-18T20:56:12.298Z,292.0226
2022-09-18T21:01:14.000Z,290.06742
2022-09-18T21:06:22.035Z,292.0226
2022-09-18T21:11:24.392Z,296
2022-09-18T21:16:26.407Z,294
2022-09-18T21:21:28.200Z,304.23392
2022-09-18T21:26:29.833Z,298.02299
2022-09-18T21:31:31.453Z,292.0226
2022-09-18T21:36:33.090Z,286.22222
2022-09-18T21:41:34.813Z,282.46154
2022-09-18T21:46:36.593Z,282.46154
2022-09-18T21:51:38.207Z,268.21053
2022-09-18T21:56:39.853Z,276.97297
2022-09-18T22:01:41.490Z,286.22222
2022-09-18T22:06:43.116Z,275.1828
2022-09-18T22:11:44.725Z,276.97297
2022-09-18T22:16:46.337Z,269.92593
2022-09-18T22:21:47.927Z,258.28571
2022-09-18T22:26:49.554Z,268.21053
2022-09-18T22:31:51.280Z,259.89744
2022-09-18T22:36:52.954Z,256.69036
2022-09-18T22:41:54.564Z,238.73684
2022-09-18T22:46:56.209Z,240.15385
2022-09-18T22:51:58.116Z,238.73684
2022-09-18T22:56:59.706Z,245.96078
2022-09-18T23:02:01.464Z,255.11111
2022-09-18T23:07:03.166Z,245.96078
2022-09-18T23:12:04.764Z,250.46766
2022-09-18T23:17:06.362Z,250.46766
2022-09-18T23:22:08.008Z,255.11111
2022-09-18T23:27:09.689Z,229.18519
2022-09-18T23:32:11.265Z,217.77778
2022-09-18T23:37:12.890Z,233.20188
2022-09-18T23:42:14.474Z,227.87097
2022-09-18T23:47:16.078Z,227.87097
2022-09-18T23:52:17.815Z,243.02913
2022-09-18T23:57:19.453Z,225.27854
